createdAt,value
2019-01-16T00:02:09.048Z,100095.94
2019-01-16T00:05:01.849Z,100094.03
2019-01-16T00:07:50.332Z,100097.16
2019-01-16T00:10:49.187Z,100088.94
2019-01-16T00:13:43.287Z,100086.68
2019-01-16T00:16:33.386Z,100087.58
2019-01-16T00:19:21.891Z,100081.46
2019-01-16T00:22:10.589Z,100080.63
2019-01-16T00:24:54.917Z,100081.52
2019-01-16T00:27:43.695Z,100071.52
2019-01-16T00:30:31.537Z,100070.46
2019-01-16T00:33:15.909Z,100070.46
2019-01-16T00:36:05.531Z,100064.37
2019-01-16T00:38:53.863Z,100063.78
2019-01-16T00:41:35.769Z,100062.79
2019-01-16T00:44:28.395Z,100058.45
2019-01-16T00:47:18.257Z,100063.41
2019-01-16T00:50:00.496Z,100058.06
2019-01-16T00:52:48.960Z,100057.41
2019-01-16T00:55:38.735Z,100044.67
2019-01-16T00:58:29.086Z,100055.86
2019-01-16T01:01:07.981Z,100052.55
2019-01-16T01:04:10.254Z,100050.41
2019-01-16T01:06:51.684Z,100055.95
2019-01-16T01:09:46.460Z,100055.16
2019-01-16T01:12:34.975Z,100057.86
2019-01-16T01:15:17.180Z,100059.69
2019-01-16T01:18:19.402Z,100058.70
2019-01-16T01:21:12.064Z,100051.38
2019-01-16T01:23:53.856Z,100048.63
2019-01-16T01:26:42.024Z,100052.64
2019-01-16T01:29:30.807Z,100048.31
2019-01-16T01:32:13.541Z,100052.57
2019-01-16T01:35:02.099Z,100045.89
2019-01-16T01:37:50.750Z,100055.38
2019-01-16T01:40:43.319Z,100046.34
2019-01-16T01:43:42.042Z,100049.83
2019-01-16T01:46:47.157Z,100048.31
2019-01-16T01:49:49.049Z,100047.09
2019-01-16T01:52:37.915Z,100045.19
2019-01-16T01:55:25.159Z,100048.31
2019-01-16T01:58:18.259Z,100041.64
2019-01-16T02:00:58.284Z,100043.31
2019-01-16T02:04:06.571Z,100040.28
2019-01-16T02:06:55.247Z,100038.52
2019-01-16T02:09:55.064Z,100039.29
2019-01-16T02:12:45.092Z,100034.81
2019-01-16T02:15:26.139Z,100040.42
2019-01-16T02:18:16.246Z,100033.59
2019-01-16T02:21:04.802Z,100033.06
2019-01-16T02:23:46.617Z,100030.91
2019-01-16T02:26:36.965Z,100032.39
2019-01-16T02:29:25.145Z,100030.55
2019-01-16T02:32:13.508Z,100028.72
2019-01-16T02:35:05.587Z,100023.69
2019-01-16T02:37:53.566Z,100019.17
2019-01-16T02:40:37.474Z,100019.95
2019-01-16T02:43:25.880Z,100015.11
2019-01-16T02:46:14.141Z,100011.60
2019-01-16T02:48:58.956Z,100006.83
2019-01-16T02:51:46.701Z,100005.38
2019-01-16T02:54:25.928Z,99999.80
2019-01-16T02:57:10.356Z,100005.19
2019-01-16T02:59:51.355Z,100002.45
2019-01-16T03:02:41.100Z,99992.87
2019-01-16T03:05:24.244Z,99993.36
2019-01-16T03:08:13.236Z,99990.00
2019-01-16T03:11:04.536Z,99989.23
2019-01-16T03:13:58.799Z,99986.33
2019-01-16T03:16:48.881Z,99985.87
2019-01-16T03:19:37.704Z,99988.23
2019-01-16T03:22:27.739Z,99972.02
2019-01-16T03:25:12.934Z,99971.73
2019-01-16T03:28:02.116Z,99973.86
2019-01-16T03:30:50.621Z,99969.16
2019-01-16T03:33:32.244Z,99966.63
2019-01-16T03:36:22.142Z,99964.00
2019-01-16T03:39:17.987Z,99960.81
2019-01-16T03:42:12.980Z,99962.61
2019-01-16T03:44:59.155Z,99965.00
2019-01-16T03:47:52.498Z,99959.30
2019-01-16T03:50:30.471Z,99953.69
2019-01-16T03:53:14.745Z,99953.55
2019-01-16T03:56:03.143Z,99951.62
2019-01-16T03:58:51.676Z,99955.36
2019-01-16T04:01:52.453Z,99943.59
2019-01-16T04:04:45.273Z,99935.53
2019-01-16T04:07:35.461Z,99928.68
2019-01-16T04:10:30.037Z,99932.67
2019-01-16T04:13:35.618Z,99931.64
2019-01-16T04:16:37.698Z,99942.30
2019-01-16T04:19:27.562Z,99933.80
2019-01-16T04:22:16.361Z,99929.09
2019-01-16T04:25:05.045Z,99929.12
2019-01-16T04:28:10.170Z,99923.58
2019-01-16T04:30:54.386Z,99917.55
2019-01-16T04:33:43.010Z,99912.94
2019-01-16T04:36:23.991Z,99920.84
2019-01-16T04:39:12.697Z,99918.75
2019-01-16T04:41:53.260Z,99909.92
2019-01-16T04:44:52.046Z,99896.06
2019-01-16T04:47:34.407Z,99894.26
2019-01-16T04:50:25.406Z,99907.34
2019-01-16T04:53:18.642Z,99901.94
2019-01-16T04:56:09.475Z,99896.69
2019-01-16T04:59:07.947Z,99897.07
2019-01-16T05:01:56.824Z,99889.89
2019-01-16T05:04:45.298Z,99899.09
2019-01-16T05:07:23.884Z,99892.20
2019-01-16T05:10:12.690Z,99885.92
2019-01-16T05:13:02.482Z,99888.33
2019-01-16T05:15:51.011Z,99886.87
2019-01-16T05:18:41.614Z,99881.55
2019-01-16T05:21:31.607Z,99868.61
2019-01-16T05:24:25.052Z,99865.13
2019-01-16T05:27:15.055Z,99859.07
2019-01-16T05:30:20.073Z,99848.59
2019-01-16T05:33:21.714Z,99849.78
2019-01-16T05:36:23.439Z,99855.22
2019-01-16T05:39:20.592Z,99853.08
2019-01-16T05:42:19.311Z,99841.83
2019-01-16T05:45:14.820Z,99849.54
2019-01-16T05:48:12.896Z,99846.48
2019-01-16T05:51:01.861Z,99845.58
2019-01-16T05:54:07.100Z,99846.58
2019-01-16T05:56:53.350Z,99846.06
2019-01-16T05:59:37.862Z,99834.81
2019-01-16T06:02:41.148Z,99832.97
2019-01-16T06:05:29.962Z,99834.20
2019-01-16T06:08:22.789Z,99834.09
2019-01-16T06:11:15.879Z,99821.09
2019-01-16T06:14:05.963Z,99825.35
2019-01-16T06:16:57.591Z,99823.33
2019-01-16T06:19:53.898Z,99815.05
2019-01-16T06:22:44.167Z,99821.20
2019-01-16T06:25:36.944Z,99820.20
2019-01-16T06:28:19.539Z,99814.48
2019-01-16T06:31:15.525Z,99812.06
2019-01-16T06:34:04.050Z,99810.89
2019-01-16T06:36:47.697Z,99816.15
2019-01-16T06:39:29.795Z,99808.61
2019-01-16T06:42:22.744Z,99808.36
2019-01-16T06:45:14.072Z,99809.39
2019-01-16T06:48:10.307Z,99814.64
2019-01-16T06:51:05.002Z,99806.52
2019-01-16T06:53:54.791Z,99802.33
2019-01-16T06:56:50.809Z,99791.83
2019-01-16T06:59:58.547Z,99794.41
2019-01-16T07:02:48.326Z,99797.61
2019-01-16T07:05:36.616Z,99798.84
2019-01-16T07:08:25.044Z,99800.52
2019-01-16T07:11:05.659Z,99795.72
2019-01-16T07:13:55.361Z,99804.39
2019-01-16T07:16:48.344Z,99799.14
2019-01-16T07:19:44.986Z,99796.82
2019-01-16T07:22:47.530Z,99802.83
2019-01-16T07:25:40.546Z,99813.07
2019-01-16T07:28:19.980Z,99800.42
2019-01-16T07:31:10.893Z,99804.80
2019-01-16T07:34:04.071Z,99795.94
2019-01-16T07:36:51.100Z,99793.36
2019-01-16T07:39:54.155Z,99801.48
2019-01-16T07:42:52.919Z,99795.87
2019-01-16T07:45:45.878Z,99786.80
2019-01-16T07:48:29.580Z,99786.75
2019-01-16T07:51:28.698Z,99780.41
2019-01-16T07:54:18.510Z,99778.84
2019-01-16T07:56:57.239Z,99787.92
2019-01-16T08:00:03.411Z,99772.51
2019-01-16T08:03:05.414Z,99776.55
2019-01-16T08:06:04.435Z,99772.58
2019-01-16T08:08:55.584Z,99770.00
2019-01-16T08:11:41.390Z,99774.08
2019-01-16T08:14:34.535Z,99781.98
2019-01-16T08:17:20.273Z,99789.64
2019-01-16T08:20:09.089Z,99789.92
2019-01-16T08:22:48.991Z,99794.70
2019-01-16T08:25:38.879Z,99796.72
2019-01-16T08:28:21.595Z,99792.34
2019-01-16T08:31:14.609Z,99792.86
2019-01-16T08:34:16.892Z,99791.12
2019-01-16T08:37:09.779Z,99786.63
2019-01-16T08:39:57.174Z,99784.65
2019-01-16T08:42:56.255Z,99777.56
2019-01-16T08:45:52.140Z,99781.02
2019-01-16T08:48:52.422Z,99783.94
2019-01-16T08:51:54.894Z,99781.47
2019-01-16T08:54:45.286Z,99777.28
2019-01-16T08:57:35.208Z,99772.92
2019-01-16T09:00:26.556Z,99771.08
2019-01-16T09:03:28.476Z,99767.94
2019-01-16T09:06:21.063Z,99766.66
2019-01-16T09:09:11.161Z,99757.17
2019-01-16T09:11:55.814Z,99755.88
2019-01-16T09:14:48.543Z,99747.84
2019-01-16T09:17:53.843Z,99737.97
2019-01-16T09:20:56.571Z,99737.33
2019-01-16T09:23:39.784Z,99737.72
2019-01-16T09:26:41.951Z,99741.39
2019-01-16T09:29:38.947Z,99752.25
2019-01-16T09:32:27.401Z,99751.52
2019-01-16T09:35:05.887Z,99751.36
2019-01-16T09:38:06.485Z,99752.05
2019-01-16T09:40:50.267Z,99750.93
2019-01-16T09:43:40.287Z,99743.37
2019-01-16T09:46:24.979Z,99740.23
2019-01-16T09:49:10.553Z,99738.62
2019-01-16T09:51:53.485Z,99734.39
2019-01-16T09:54:42.075Z,99728.47
2019-01-16T09:57:31.831Z,99726.67
2019-01-16T10:00:30.833Z,99717.23
2019-01-16T10:03:23.266Z,99714.97
2019-01-16T10:06:15.585Z,99714.80
2019-01-16T10:08:55.260Z,99701.44
2019-01-16T10:11:54.084Z,99702.35
2019-01-16T10:14:44.018Z,99696.28
2019-01-16T10:17:32.835Z,99682.81
2019-01-16T10:20:23.461Z,99674.99
2019-01-16T10:23:02.073Z,99686.33
2019-01-16T10:25:53.670Z,99690.53
2019-01-16T10:28:49.445Z,99689.55
2019-01-16T10:31:48.486Z,99693.50
2019-01-16T10:34:47.487Z,99694.14
2019-01-16T10:37:37.633Z,99685.73
2019-01-16T10:40:27.791Z,99686.50
2019-01-16T10:43:23.991Z,99669.71
2019-01-16T10:46:05.950Z,99661.88
2019-01-16T10:48:54.231Z,99651.20
2019-01-16T10:51:54.847Z,99655.91
2019-01-16T10:54:43.752Z,99656.63
2019-01-16T10:57:38.258Z,99631.00
2019-01-16T11:00:26.013Z,99620.14
2019-01-16T11:03:12.698Z,99626.59
2019-01-16T11:06:08.628Z,99625.03
2019-01-16T11:08:46.826Z,99612.95
2019-01-16T11:11:36.988Z,99613.31
2019-01-16T11:14:25.270Z,99603.17
2019-01-16T11:17:17.435Z,99590.91
2019-01-16T11:20:02.610Z,99590.42
2019-01-16T11:22:51.429Z,99582.98
2019-01-16T11:25:50.808Z,99577.60
2019-01-16T11:28:43.821Z,99571.31
2019-01-16T11:31:32.230Z,99574.42
2019-01-16T11:34:16.814Z,99545.98
2019-01-16T11:37:12.915Z,99558.14
2019-01-16T11:39:54.250Z,99567.70
2019-01-16T11:42:49.951Z,99563.82
2019-01-16T11:45:31.561Z,99558.27
2019-01-16T11:48:21.349Z,99564.03
2019-01-16T11:51:04.952Z,99565.45
2019-01-16T11:53:49.827Z,99537.15
2019-01-16T11:56:42.793Z,99547.34
2019-01-16T11:59:29.208Z,99538.62
2019-01-16T12:02:17.230Z,99535.59
2019-01-16T12:05:03.230Z,99538.18
2019-01-16T12:07:48.674Z,99521.07
2019-01-16T12:10:37.555Z,99513.84
2019-01-16T12:13:23.190Z,99498.08
2019-01-16T12:16:11.444Z,99491.82
2019-01-16T12:18:57.954Z,99492.09
2019-01-16T12:21:46.203Z,99493.78
2019-01-16T12:24:36.047Z,99487.23
2019-01-16T12:27:32.116Z,99487.31
2019-01-16T12:30:16.907Z,99476.30
2019-01-16T12:33:06.768Z,99472.34
2019-01-16T12:35:57.762Z,99469.05
2019-01-16T12:38:53.593Z,99463.75
2019-01-16T12:41:59.642Z,99455.83
2019-01-16T12:45:07.579Z,99440.12
2019-01-16T12:47:55.242Z,99433.66
2019-01-16T12:50:57.076Z,99425.95
2019-01-16T12:53:55.751Z,99419.69
2019-01-16T12:56:38.086Z,99418.61
2019-01-16T12:59:37.319Z,99418.16
2019-01-16T13:02:24.889Z,99415.91
2019-01-16T13:05:12.004Z,99407.11
2019-01-16T13:08:03.617Z,99398.23
2019-01-16T13:10:51.740Z,99395.03
2019-01-16T13:13:50.149Z,99393.95
2019-01-16T13:16:43.363Z,99381.19
2019-01-16T13:19:44.961Z,99377.57
2019-01-16T13:22:36.009Z,99378.11
2019-01-16T13:25:24.672Z,99383.73
2019-01-16T13:28:12.977Z,99377.78
2019-01-16T13:31:01.293Z,99376.28
2019-01-16T13:33:53.994Z,99371.31
2019-01-16T13:37:02.046Z,99368.23
2019-01-16T13:40:00.656Z,99355.23
2019-01-16T13:42:45.096Z,99354.95
2019-01-16T13:45:40.892Z,99350.81
2019-01-16T13:48:43.295Z,99350.53
2019-01-16T13:51:31.678Z,99332.32
2019-01-16T13:54:16.043Z,99335.03
2019-01-16T13:57:14.976Z,99337.58
2019-01-16T13:59:57.943Z,99326.83
2019-01-16T14:02:56.910Z,99335.70
2019-01-16T14:05:48.336Z,99325.45
2019-01-16T14:08:56.223Z,99334.07
2019-01-16T14:11:39.282Z,99319.50
2019-01-16T14:14:29.427Z,99312.46
2019-01-16T14:17:11.287Z,99319.08
2019-01-16T14:19:59.970Z,99315.37
2019-01-16T14:22:41.517Z,99318.91
2019-01-16T14:25:49.585Z,99318.03
2019-01-16T14:28:37.627Z,99316.50
2019-01-16T14:31:29.181Z,99311.17
2019-01-16T14:34:12.495Z,99312.88
2019-01-16T14:37:01.044Z,99305.70
2019-01-16T14:39:43.526Z,99302.97
2019-01-16T14:42:30.540Z,99298.71
2019-01-16T14:45:25.260Z,99291.59
2019-01-16T14:48:17.564Z,99287.84
2019-01-16T14:50:54.516Z,99278.39
2019-01-16T14:53:35.643Z,99282.88
2019-01-16T14:56:24.309Z,99282.98
2019-01-16T14:59:23.391Z,99281.84
2019-01-16T15:02:10.146Z,99278.86
2019-01-16T15:05:01.557Z,99270.19
2019-01-16T15:07:51.754Z,99259.03
2019-01-16T15:10:36.771Z,99256.13
2019-01-16T15:13:21.269Z,99256.41
2019-01-16T15:16:10.201Z,99247.17
2019-01-16T15:18:51.436Z,99248.34
2019-01-16T15:21:47.114Z,99246.80
2019-01-16T15:24:35.458Z,99245.80
2019-01-16T15:27:24.261Z,99246.01
2019-01-16T15:30:32.537Z,99235.14
2019-01-16T15:33:27.179Z,99227.19
2019-01-16T15:36:20.354Z,99221.81
2019-01-16T15:39:18.027Z,99220.98
2019-01-16T15:42:16.836Z,99218.36
2019-01-16T15:45:06.104Z,99214.54
2019-01-16T15:47:58.571Z,99210.59
2019-01-16T15:50:46.971Z,99213.59
2019-01-16T15:53:27.370Z,99203.88
2019-01-16T15:56:15.673Z,99201.67
2019-01-16T15:59:08.581Z,99199.34
2019-01-16T16:01:57.383Z,99199.50
2019-01-16T16:04:38.596Z,99200.39
2019-01-16T16:07:39.752Z,99198.48
2019-01-16T16:10:30.089Z,99190.36
2019-01-16T16:13:32.310Z,99185.78
2019-01-16T16:16:24.961Z,99186.41
2019-01-16T16:19:13.504Z,99186.45
2019-01-16T16:22:06.506Z,99181.20
2019-01-16T16:24:55.117Z,99184.44
2019-01-16T16:27:48.040Z,99168.37
2019-01-16T16:30:39.110Z,99167.36
2019-01-16T16:33:21.714Z,99171.78
2019-01-16T16:36:11.726Z,99169.16
2019-01-16T16:39:01.498Z,99167.42
2019-01-16T16:41:57.985Z,99165.61
2019-01-16T16:44:53.786Z,99156.92
2019-01-16T16:47:45.243Z,99163.55
2019-01-16T16:50:35.437Z,99166.08
2019-01-16T16:53:18.282Z,99159.77
2019-01-16T16:56:16.684Z,99151.41
2019-01-16T16:59:04.938Z,99141.14
2019-01-16T17:01:48.560Z,99141.35
2019-01-16T17:04:47.430Z,99132.94
2019-01-16T17:07:40.107Z,99135.05
2019-01-16T17:10:23.660Z,99133.41
2019-01-16T17:13:03.153Z,99122.11
2019-01-16T17:15:55.598Z,99121.58
2019-01-16T17:18:54.611Z,99117.00
2019-01-16T17:21:47.561Z,99116.78
2019-01-16T17:24:43.219Z,99108.53
2019-01-16T17:27:31.571Z,99103.98
2019-01-16T17:30:20.020Z,99099.71
2019-01-16T17:33:06.850Z,99098.17
2019-01-16T17:35:55.704Z,99100.42
2019-01-16T17:38:51.561Z,99109.30
2019-01-16T17:41:41.306Z,99103.03
2019-01-16T17:44:22.487Z,99108.08
2019-01-16T17:47:15.719Z,99109.83
2019-01-16T17:50:20.488Z,99114.16
2019-01-16T17:53:15.246Z,99104.79
2019-01-16T17:56:03.989Z,99105.43
2019-01-16T17:58:45.502Z,99105.52
2019-01-16T18:01:38.715Z,99112.28
2019-01-16T18:04:31.313Z,99101.50
2019-01-16T18:07:30.196Z,99113.67
2019-01-16T18:10:12.793Z,99091.84
2019-01-16T18:13:02.829Z,99100.27
2019-01-16T18:15:53.396Z,99094.95
2019-01-16T18:18:52.822Z,99095.57
2019-01-16T18:21:36.050Z,99086.95
2019-01-16T18:24:24.889Z,99071.87
2019-01-16T18:27:29.616Z,99080.39
2019-01-16T18:30:19.713Z,99070.38
2019-01-16T18:33:03.886Z,99066.66
2019-01-16T18:36:02.671Z,99061.38
2019-01-16T18:39:07.519Z,99057.25
2019-01-16T18:41:48.952Z,99056.42
2019-01-16T18:44:37.751Z,99058.89
2019-01-16T18:47:18.581Z,99051.36
2019-01-16T18:50:17.564Z,99057.83
2019-01-16T18:53:05.947Z,99055.08
2019-01-16T18:55:56.219Z,99055.53
2019-01-16T18:59:01.252Z,99049.61
2019-01-16T19:02:03.230Z,99053.30
2019-01-16T19:04:42.503Z,99051.52
2019-01-16T19:07:34.806Z,99053.66
2019-01-16T19:10:26.383Z,99042.88
2019-01-16T19:13:22.448Z,99050.75
2019-01-16T19:16:18.040Z,99046.75
2019-01-16T19:19:04.808Z,99048.94
2019-01-16T19:21:41.706Z,99055.11
2019-01-16T19:24:22.911Z,99049.70
2019-01-16T19:27:12.771Z,99051.02
2019-01-16T19:30:08.737Z,99054.31
2019-01-16T19:32:54.226Z,99050.93
2019-01-16T19:35:47.307Z,99044.02
2019-01-16T19:38:37.271Z,99036.28
2019-01-16T19:41:25.775Z,99053.66
2019-01-16T19:44:10.022Z,99042.97
2019-01-16T19:47:08.894Z,99053.45
2019-01-16T19:49:57.652Z,99045.28
2019-01-16T19:53:06.125Z,99041.04
2019-01-16T19:56:05.273Z,99044.97
2019-01-16T19:58:58.002Z,99041.47
2019-01-16T20:02:00.222Z,99035.52
2019-01-16T20:04:59.339Z,99031.91
2019-01-16T20:07:47.401Z,99035.81
2019-01-16T20:10:36.834Z,99031.77
2019-01-16T20:13:38.796Z,99025.65
2019-01-16T20:16:27.214Z,99026.66
2019-01-16T20:19:23.824Z,99025.03
2019-01-16T20:22:12.316Z,99026.72
2019-01-16T20:25:02.317Z,99033.51
2019-01-16T20:27:52.168Z,99038.52
2019-01-16T20:30:42.422Z,99036.72
2019-01-16T20:33:35.330Z,99022.89
2019-01-16T20:36:24.237Z,99025.48
2019-01-16T20:39:22.942Z,99021.56
2019-01-16T20:42:22.178Z,99018.55
2019-01-16T20:45:19.200Z,99028.31
2019-01-16T20:48:14.896Z,99024.31
2019-01-16T20:51:04.743Z,99018.26
2019-01-16T20:53:48.213Z,99011.39
2019-01-16T20:56:28.806Z,99022.88
2019-01-16T20:59:17.004Z,99016.56
2019-01-16T21:02:05.511Z,99013.00
2019-01-16T21:04:59.967Z,99013.70
2019-01-16T21:07:52.609Z,99008.84
2019-01-16T21:10:40.128Z,99009.49
2019-01-16T21:13:27.223Z,99015.10
2019-01-16T21:16:03.954Z,99005.95
2019-01-16T21:18:46.215Z,99013.48
2019-01-16T21:21:33.188Z,99015.36
2019-01-16T21:24:29.919Z,99007.00
2019-01-16T21:27:18.457Z,99008.91
2019-01-16T21:30:08.988Z,99004.33
2019-01-16T21:32:49.611Z,99008.98
2019-01-16T21:35:38.074Z,99007.55
2019-01-16T21:38:25.186Z,99013.45
2019-01-16T21:41:23.960Z,99008.95
2019-01-16T21:44:19.644Z,99007.55
2019-01-16T21:46:58.361Z,99010.50
2019-01-16T21:49:46.888Z,99016.47
2019-01-16T21:52:28.938Z,99011.56
2019-01-16T21:55:12.364Z,99013.92
2019-01-16T21:57:59.582Z,99014.52
2019-01-16T22:01:04.746Z,99014.80
2019-01-16T22:03:53.539Z,99020.18
2019-01-16T22:06:43.683Z,99010.31
2019-01-16T22:09:36.300Z,99015.26
2019-01-16T22:12:20.209Z,99011.65
2019-01-16T22:15:19.379Z,99013.86
2019-01-16T22:18:24.636Z,99012.11
2019-01-16T22:21:14.795Z,99013.71
2019-01-16T22:24:03.390Z,99011.06
2019-01-16T22:26:46.433Z,99009.63
2019-01-16T22:29:29.820Z,99013.03
2019-01-16T22:32:08.791Z,99011.42
2019-01-16T22:35:07.043Z,99011.28
2019-01-16T22:37:55.489Z,99008.70
2019-01-16T22:40:47.843Z,99001.01
2019-01-16T22:43:30.566Z,98999.98
2019-01-16T22:46:20.343Z,98996.42
2019-01-16T22:49:08.440Z,98995.08
2019-01-16T22:52:04.506Z,98993.23
2019-01-16T22:54:49.655Z,98987.99
2019-01-16T22:57:46.208Z,98981.17
2019-01-16T23:00:47.071Z,98995.29
2019-01-16T23:03:55.611Z,98990.69
2019-01-16T23:06:45.458Z,98987.84
2019-01-16T23:09:30.246Z,98985.19
2019-01-16T23:12:38.186Z,98980.13
2019-01-16T23:15:24.093Z,98974.41
2019-01-16T23:18:05.063Z,98974.73
2019-01-16T23:20:54.847Z,98970.39
2019-01-16T23:23:37.249Z,98971.36
2019-01-16T23:26:27.998Z,98961.94
2019-01-16T23:29:22.687Z,98960.42
2019-01-16T23:32:06.692Z,98956.66
2019-01-16T23:34:48.569Z,98948.52
2019-01-16T23:37:42.724Z,98965.14
2019-01-16T23:40:29.868Z,98948.91
2019-01-16T23:43:32.097Z,98952.09
2019-01-16T23:46:19.819Z,98950.80
2019-01-16T23:49:07.119Z,98952.59
2019-01-16T23:51:59.719Z,98947.75
2019-01-16T23:54:58.769Z,98957.84
2019-01-16T23:57:45.938Z,98947.38
